Terminal Aerodrome Forecast
Issued by NWS Shreveport, LA

Home | Current Version | Previous Version | Text Only | Print | Product List | Glossary On
Versions: 1 2 3 4 5 6 7 8 9 10 11 12
000
FTUS44 KSHV 140500
TAFSHV
TAF
KSHV 140521Z 1406/1506 16005KT P6SM SCT250
     FM141500 23008KT P6SM SCT050
     FM150000 21007KT P6SM BKN250=

USA.gov is the U.S. government's official web portal to all federal, state and local government web resources and services.